Time;durP1;ratioP1;P1;durP2;ratioP2;P2;SDS_P1;SDS_P2;PMS_P1;PMS_P2;Temp;Humidity;BMP_temperature;BMP_pressure;BME280_temperature;BME280_humidity;BME280_pressure;Samples;Min_cycle;Max_cycle;Signal;HPM_P1;HPM_P2
2022/06/04 00:01:11;;;;;;;;;5.75;5.75;;;;;;;;5063155;27;45439;-74
2022/06/04 00:03:36;;;;;;;;;6.25;6.25;;;;;;;;5074024;27;47078;-74
2022/06/04 00:06:01;;;;;;;;;6.00;6.00;;;;;;;;5071625;28;45215;-73
2022/06/04 00:08:28;;;;;;;;;9.75;6.75;;;;;;;;5073861;28;45545;-74
2022/06/04 00:16:23;;;;;;;;;6.75;6.50;;;;;;;;5063800;27;45349;-74
2022/06/04 00:18:48;;;;;;;;;6.50;6.50;;;;;;;;5075522;27;45409;-73
2022/06/04 00:21:13;;;;;;;;;6.25;6.25;;;;;;;;5079781;27;45694;-74
2022/06/04 00:23:39;;;;;;;;;7.75;7.00;;;;;;;;5059135;28;46024;-74
2022/06/04 00:26:09;;;;;;;;;5.25;5.25;;;;;;;;5061054;28;45276;-73
2022/06/04 00:28:35;;;;;;;;;6.75;6.75;;;;;;;;5075597;27;45602;-73
2022/06/04 00:31:00;;;;;;;;;7.00;7.00;;;;;;;;5070719;28;45427;-74
2022/06/04 00:33:26;;;;;;;;;5.25;5.25;;;;;;;;5070822;28;46143;-74
2022/06/04 00:35:52;;;;;;;;;5.00;5.00;;;;;;;;5073344;28;45465;-74
2022/06/04 00:38:19;;;;;;;;;7.00;6.25;;;;;;;;5074883;27;45358;-73
2022/06/04 00:40:53;;;;;;;;;7.25;7.25;;;;;;;;5061744;28;45214;-74
2022/06/04 00:43:18;;;;;;;;;6.25;6.25;;;;;;;;5062199;28;47386;-73
2022/06/04 00:46:03;;;;;;;;;8.00;7.25;;;;;;;;5061861;28;45389;-74
2022/06/04 00:48:28;;;;;;;;;6.00;6.00;;;;;;;;5062120;28;45461;-73
2022/06/04 00:50:53;;;;;;;;;6.00;6.00;;;;;;;;5061460;27;45207;-74
2022/06/04 00:53:18;;;;;;;;;6.75;6.75;;;;;;;;5077420;27;46262;-74
2022/06/04 00:55:47;;;;;;;;;7.00;7.00;;;;;;;;5072840;28;45792;-73
2022/06/04 00:58:31;;;;;;;;;8.25;8.25;;;;;;;;5064224;28;45576;-74
2022/06/04 01:01:00;;;;;;;;;5.25;5.00;;;;;;;;5065984;28;45410;-73
2022/06/04 01:03:51;;;;;;;;;5.25;5.25;;;;;;;;5070229;28;45466;-73
2022/06/04 01:06:28;;;;;;;;;6.25;6.25;;;;;;;;5056426;28;45608;-74
2022/06/04 01:09:01;;;;;;;;;7.50;7.50;;;;;;;;5059749;28;45343;-74
2022/06/04 01:14:47;;;;;;;;;5.00;5.00;;;;;;;;5053135;28;45758;-74
2022/06/04 01:17:14;;;;;;;;;7.00;7.00;;;;;;;;5055908;28;45523;-74
2022/06/04 01:20:09;;;;;;;;;6.00;6.00;;;;;;;;5054368;28;45376;-74
2022/06/04 01:22:44;;;;;;;;;8.50;7.00;;;;;;;;5049185;28;45408;-73
2022/06/04 01:25:12;;;;;;;;;6.00;6.00;;;;;;;;5053002;28;46164;-73
2022/06/04 01:27:43;;;;;;;;;7.00;7.00;;;;;;;;5053136;28;45455;-73
2022/06/04 01:30:31;;;;;;;;;6.00;6.00;;;;;;;;5060038;28;45530;-74
2022/06/04 01:32:59;;;;;;;;;7.00;7.00;;;;;;;;5053301;28;45483;-74
2022/06/04 01:35:30;;;;;;;;;6.00;6.00;;;;;;;;5052816;28;47190;-74
2022/06/04 01:37:57;;;;;;;;;5.25;5.25;;;;;;;;5059246;28;45461;-73
2022/06/04 01:43:15;;;;;;;;;5.00;5.00;;;;;;;;5063102;27;45506;-74
2022/06/04 01:45:41;;;;;;;;;4.00;4.00;;;;;;;;5066788;28;47173;-74
2022/06/04 01:48:07;;;;;;;;;6.50;6.50;;;;;;;;5058248;28;45657;-73
2022/06/04 01:50:35;;;;;;;;;6.00;6.00;;;;;;;;5072360;28;45678;-73
2022/06/04 01:53:03;;;;;;;;;8.25;7.75;;;;;;;;5072897;27;45419;-73
2022/06/04 01:55:49;;;;;;;;;6.00;6.00;;;;;;;;5069883;28;46416;-73
2022/06/04 01:58:18;;;;;;;;;5.00;5.00;;;;;;;;5068560;27;45689;-73
2022/06/04 02:00:47;;;;;;;;;7.00;6.25;;;;;;;;5072617;27;45464;-73
2022/06/04 02:03:19;;;;;;;;;7.75;5.75;;;;;;;;5070770;27;45492;-73
2022/06/04 02:05:46;;;;;;;;;6.00;6.00;;;;;;;;5086973;27;47186;-73
2022/06/04 02:08:14;;;;;;;;;6.00;6.00;;;;;;;;5075340;27;45340;-74
2022/06/04 02:10:52;;;;;;;;;5.25;5.25;;;;;;;;5071013;28;45308;-73
2022/06/04 02:13:17;;;;;;;;;7.50;6.75;;;;;;;;5075238;27;45462;-74
2022/06/04 02:15:50;;;;;;;;;7.00;7.00;;;;;;;;5069420;27;47191;-74
2022/06/04 02:18:15;;;;;;;;;8.50;7.25;;;;;;;;5080342;27;45590;-74
2022/06/04 02:20:40;;;;;;;;;6.25;6.25;;;;;;;;5057432;28;45608;-74
2022/06/04 02:23:06;;;;;;;;;8.25;6.25;;;;;;;;5076869;27;45300;-74
2022/06/04 02:25:31;;;;;;;;;9.75;6.50;;;;;;;;5060657;28;46108;-74
2022/06/04 02:27:58;;;;;;;;;7.00;7.00;;;;;;;;5068932;27;45489;-74
2022/06/04 02:30:25;;;;;;;;;5.00;5.00;;;;;;;;5078611;27;45526;-74
2022/06/04 02:33:06;;;;;;;;;8.00;7.00;;;;;;;;5072278;28;45358;-74
2022/06/04 02:35:37;;;;;;;;;6.00;6.00;;;;;;;;5059047;27;45291;-73
2022/06/04 02:38:05;;;;;;;;;4.00;4.00;;;;;;;;5071909;28;45310;-74
2022/06/04 02:40:39;;;;;;;;;6.00;6.00;;;;;;;;5075187;27;45453;-73
2022/06/04 02:43:13;;;;;;;;;8.00;5.75;;;;;;;;5076178;27;45567;-74
2022/06/04 02:45:41;;;;;;;;;6.00;5.75;;;;;;;;5070735;27;46281;-74
2022/06/04 02:48:11;;;;;;;;;7.00;7.00;;;;;;;;5061751;28;45442;-74
2022/06/04 02:50:39;;;;;;;;;7.00;7.00;;;;;;;;5077020;27;45499;-74
2022/06/04 02:53:05;;;;;;;;;6.00;6.00;;;;;;;;5075102;28;45609;-74
2022/06/04 02:55:33;;;;;;;;;8.25;8.25;;;;;;;;5063423;28;45541;-74
2022/06/04 02:58:01;;;;;;;;;7.50;6.25;;;;;;;;5063033;28;45484;-74
2022/06/04 03:00:27;;;;;;;;;6.00;5.00;;;;;;;;5063455;28;45294;-74
2022/06/04 03:02:52;;;;;;;;;5.25;5.25;;;;;;;;5062448;27;45411;-73
2022/06/04 03:05:20;;;;;;;;;6.25;6.25;;;;;;;;5089455;27;45686;-73
2022/06/04 03:07:47;;;;;;;;;6.75;6.50;;;;;;;;5063240;28;45301;-74
2022/06/04 03:10:14;;;;;;;;;6.50;6.50;;;;;;;;5069739;28;45405;-74
2022/06/04 03:12:40;;;;;;;;;7.00;7.00;;;;;;;;5073789;27;45369;-74
2022/06/04 03:15:06;;;;;;;;;6.25;6.25;;;;;;;;5085345;27;46079;-73
2022/06/04 03:17:31;;;;;;;;;7.25;7.25;;;;;;;;5068686;27;45531;-74
2022/06/04 03:19:56;;;;;;;;;7.50;6.00;;;;;;;;5074250;28;45482;-74
2022/06/04 03:22:21;;;;;;;;;5.75;4.75;;;;;;;;5082523;27;45541;-74
2022/06/04 03:24:47;;;;;;;;;6.25;6.25;;;;;;;;5079675;27;47198;-74
2022/06/04 03:27:12;;;;;;;;;6.00;6.00;;;;;;;;5070242;28;45362;-74
2022/06/04 03:29:37;;;;;;;;;7.50;7.50;;;;;;;;5059901;28;45514;-74
2022/06/04 03:32:02;;;;;;;;;6.50;6.00;;;;;;;;5078936;27;45425;-74
2022/06/04 03:34:27;;;;;;;;;6.75;6.75;;;;;;;;5076452;27;45997;-74
2022/06/04 03:36:53;;;;;;;;;6.00;5.25;;;;;;;;5074871;28;45438;-73
2022/06/04 03:39:18;;;;;;;;;6.50;6.00;;;;;;;;5071141;28;45461;-74
2022/06/04 03:41:43;;;;;;;;;6.00;6.00;;;;;;;;5085776;27;45316;-74
2022/06/04 03:44:08;;;;;;;;;6.00;5.75;;;;;;;;5074233;28;46271;-74
2022/06/04 03:46:33;;;;;;;;;7.00;5.75;;;;;;;;5072604;28;45445;-74
2022/06/04 03:48:59;;;;;;;;;6.00;6.00;;;;;;;;5067349;28;45486;-74
2022/06/04 03:51:25;;;;;;;;;6.00;6.00;;;;;;;;5062309;28;45552;-74
2022/06/04 03:53:50;;;;;;;;;6.25;6.25;;;;;;;;5074525;27;47148;-74
2022/06/04 03:56:16;;;;;;;;;8.00;8.00;;;;;;;;5060040;28;45284;-73
2022/06/04 03:58:41;;;;;;;;;6.75;6.75;;;;;;;;5073651;28;45371;-74
2022/06/04 04:01:27;;;;;;;;;4.25;4.25;;;;;;;;5074596;27;45681;-74
2022/06/04 04:03:54;;;;;;;;;7.75;6.00;;;;;;;;5067807;27;46550;-74
2022/06/04 04:06:20;;;;;;;;;6.50;5.00;;;;;;;;5059481;27;45384;-74
2022/06/04 04:08:46;;;;;;;;;7.25;7.25;;;;;;;;5074322;28;45371;-74
2022/06/04 04:11:12;;;;;;;;;6.00;6.00;;;;;;;;5083651;27;45478;-74
2022/06/04 04:13:37;;;;;;;;;6.50;6.50;;;;;;;;5062812;28;46193;-74
2022/06/04 04:16:03;;;;;;;;;5.50;5.50;;;;;;;;5067681;28;45464;-74
2022/06/04 04:18:28;;;;;;;;;8.00;7.00;;;;;;;;5074332;27;45386;-74
2022/06/04 04:20:53;;;;;;;;;6.50;6.50;;;;;;;;5072449;27;45373;-74
2022/06/04 04:23:18;;;;;;;;;5.50;5.50;;;;;;;;5072606;27;46264;-74
2022/06/04 04:25:43;;;;;;;;;6.00;6.00;;;;;;;;5062147;28;45398;-74
2022/06/04 04:28:09;;;;;;;;;6.25;5.50;;;;;;;;5078964;27;45414;-74
2022/06/04 04:30:35;;;;;;;;;5.00;5.00;;;;;;;;5079920;27;45362;-73
2022/06/04 04:33:01;;;;;;;;;6.75;6.75;;;;;;;;5086792;27;46203;-73
2022/06/04 04:35:28;;;;;;;;;6.00;6.00;;;;;;;;5058838;28;45416;-74
2022/06/04 04:37:54;;;;;;;;;5.00;5.00;;;;;;;;5073376;28;45406;-74
2022/06/04 04:40:20;;;;;;;;;7.00;7.00;;;;;;;;5062877;27;45406;-74
2022/06/04 04:42:48;;;;;;;;;7.50;7.00;;;;;;;;5062200;28;45461;-74
2022/06/04 04:45:13;;;;;;;;;6.75;6.75;;;;;;;;5060188;28;45292;-73
2022/06/04 04:47:40;;;;;;;;;5.00;5.00;;;;;;;;5074592;28;45454;-74
2022/06/04 04:50:07;;;;;;;;;6.00;6.00;;;;;;;;5073201;28;45308;-74
2022/06/04 04:52:32;;;;;;;;;9.00;7.50;;;;;;;;5062290;28;46075;-74
2022/06/04 04:54:58;;;;;;;;;6.75;6.75;;;;;;;;5066252;28;45384;-74
2022/06/04 04:57:23;;;;;;;;;6.00;6.00;;;;;;;;5070431;28;45497;-73
2022/06/04 04:59:48;;;;;;;;;6.00;6.00;;;;;;;;5076310;27;45548;-74
2022/06/04 05:02:13;;;;;;;;;5.75;5.75;;;;;;;;5073683;28;47078;-74
2022/06/04 05:04:39;;;;;;;;;5.00;5.00;;;;;;;;5074120;27;45497;-73
2022/06/04 05:07:04;;;;;;;;;7.75;6.00;;;;;;;;5074084;27;45441;-74
2022/06/04 05:09:30;;;;;;;;;6.00;6.00;;;;;;;;5078500;27;45329;-74
2022/06/04 05:11:55;;;;;;;;;6.00;6.00;;;;;;;;5071535;27;45314;-74
2022/06/04 05:14:20;;;;;;;;;8.25;6.00;;;;;;;;5073112;28;45506;-74
2022/06/04 05:16:46;;;;;;;;;6.75;5.50;;;;;;;;5063562;27;45404;-74
2022/06/04 05:19:11;;;;;;;;;7.25;7.25;;;;;;;;5065538;27;45325;-74
2022/06/04 05:21:36;;;;;;;;;6.00;6.00;;;;;;;;5061463;28;45204;-74
2022/06/04 05:24:02;;;;;;;;;6.00;6.00;;;;;;;;5060902;28;45444;-74
2022/06/04 05:26:27;;;;;;;;;6.00;6.00;;;;;;;;5059013;27;45364;-74
2022/06/04 05:28:53;;;;;;;;;5.00;5.00;;;;;;;;5067380;27;45328;-74
2022/06/04 05:31:18;;;;;;;;;7.00;7.00;;;;;;;;5059845;28;46782;-74
2022/06/04 05:33:44;;;;;;;;;6.75;6.00;;;;;;;;5061261;28;45493;-74
2022/06/04 05:36:09;;;;;;;;;7.25;7.25;;;;;;;;5077801;27;45526;-74
2022/06/04 05:38:34;;;;;;;;;7.50;7.50;;;;;;;;5056185;28;45449;-74
2022/06/04 05:41:07;;;;;;;;;6.50;5.75;;;;;;;;5073734;27;47278;-74
2022/06/04 05:43:33;;;;;;;;;7.00;7.00;;;;;;;;5071296;28;45322;-74
2022/06/04 05:46:03;;;;;;;;;7.75;6.25;;;;;;;;5070546;28;45420;-74
2022/06/04 05:48:28;;;;;;;;;6.50;6.50;;;;;;;;5069764;28;45311;-74
2022/06/04 05:50:55;;;;;;;;;5.25;5.25;;;;;;;;5072238;27;46057;-74
2022/06/04 05:53:21;;;;;;;;;5.00;5.00;;;;;;;;5057704;28;45281;-74
2022/06/04 05:55:46;;;;;;;;;5.25;5.25;;;;;;;;5073701;27;45451;-74
2022/06/04 05:58:11;;;;;;;;;5.00;5.00;;;;;;;;5065361;27;45271;-74
2022/06/04 06:00:36;;;;;;;;;6.75;6.50;;;;;;;;5075903;27;47323;-74
2022/06/04 06:03:01;;;;;;;;;7.00;7.00;;;;;;;;5059253;27;45274;-74
2022/06/04 06:05:27;;;;;;;;;8.50;6.00;;;;;;;;5075102;27;45559;-73
2022/06/04 06:07:53;;;;;;;;;7.75;6.00;;;;;;;;5071917;28;45480;-74
2022/06/04 06:10:18;;;;;;;;;8.00;6.00;;;;;;;;5066601;27;45449;-74
2022/06/04 06:12:43;;;;;;;;;5.00;5.00;;;;;;;;5075627;27;45265;-74
2022/06/04 06:15:09;;;;;;;;;5.00;5.00;;;;;;;;5071189;27;45371;-74
2022/06/04 06:17:34;;;;;;;;;6.50;6.50;;;;;;;;5060180;27;45478;-74
2022/06/04 06:19:59;;;;;;;;;5.25;5.25;;;;;;;;5060159;28;45315;-75
2022/06/04 06:22:24;;;;;;;;;6.00;6.00;;;;;;;;5068611;28;45510;-74
2022/06/04 06:24:50;;;;;;;;;5.00;5.00;;;;;;;;5069111;27;45374;-74
2022/06/04 06:27:15;;;;;;;;;6.50;5.00;;;;;;;;5069176;28;45375;-73
2022/06/04 06:29:40;;;;;;;;;5.00;5.00;;;;;;;;5074615;27;46176;-74
2022/06/04 06:32:05;;;;;;;;;6.75;5.50;;;;;;;;5057515;28;45455;-74
2022/06/04 06:34:31;;;;;;;;;7.00;5.50;;;;;;;;5061559;27;45256;-74
2022/06/04 06:36:56;;;;;;;;;5.75;5.75;;;;;;;;5067633;27;45427;-74
2022/06/04 06:39:22;;;;;;;;;4.00;4.00;;;;;;;;5069025;28;45371;-74
2022/06/04 06:41:47;;;;;;;;;5.00;5.00;;;;;;;;5071664;27;45395;-74
2022/06/04 06:44:13;;;;;;;;;5.00;5.00;;;;;;;;5072835;27;45317;-75
2022/06/04 06:46:39;;;;;;;;;5.75;5.75;;;;;;;;5060188;28;45444;-74
2022/06/04 06:49:08;;;;;;;;;5.50;5.50;;;;;;;;5065575;27;45571;-74
2022/06/04 06:51:35;;;;;;;;;6.50;5.00;;;;;;;;5068634;27;45534;-74
2022/06/04 06:54:01;;;;;;;;;5.25;5.25;;;;;;;;5071316;27;45555;-74
2022/06/04 06:56:28;;;;;;;;;6.00;6.00;;;;;;;;5057740;28;45394;-74
2022/06/04 06:58:54;;;;;;;;;5.25;5.25;;;;;;;;5072089;27;45493;-74
2022/06/04 07:01:21;;;;;;;;;5.75;5.75;;;;;;;;5068752;27;45506;-74
2022/06/04 07:03:46;;;;;;;;;7.00;7.00;;;;;;;;5081979;27;45263;-74
2022/06/04 07:06:12;;;;;;;;;7.00;7.00;;;;;;;;5081241;27;47991;-74
2022/06/04 07:08:38;;;;;;;;;6.75;6.75;;;;;;;;5058017;27;45264;-74
2022/06/04 07:11:04;;;;;;;;;6.00;6.00;;;;;;;;5071633;28;45398;-74
2022/06/04 07:13:29;;;;;;;;;7.00;6.00;;;;;;;;5073350;27;45434;-74
2022/06/04 07:15:54;;;;;;;;;7.50;6.25;;;;;;;;5073005;28;45448;-74
2022/06/04 07:18:19;;;;;;;;;7.25;7.25;;;;;;;;5068255;27;45352;-74
2022/06/04 07:20:45;;;;;;;;;6.00;6.00;;;;;;;;5071552;28;45434;-74
2022/06/04 07:23:12;;;;;;;;;6.75;6.75;;;;;;;;5071744;28;45358;-74
2022/06/04 07:25:40;;;;;;;;;6.50;6.50;;;;;;;;5060426;27;45519;-74
2022/06/04 07:28:05;;;;;;;;;7.00;7.00;;;;;;;;5063081;28;46193;-74
2022/06/04 07:30:30;;;;;;;;;8.50;7.25;;;;;;;;5069029;27;45501;-74
2022/06/04 07:32:55;;;;;;;;;5.50;5.00;;;;;;;;5060299;28;45459;-74
2022/06/04 07:35:21;;;;;;;;;6.25;6.25;;;;;;;;5074286;27;45488;-73
2022/06/04 07:37:46;;;;;;;;;7.00;6.00;;;;;;;;5077759;27;46166;-74
2022/06/04 07:40:12;;;;;;;;;8.00;6.00;;;;;;;;5074471;27;45337;-73
2022/06/04 07:42:37;;;;;;;;;6.75;5.75;;;;;;;;5070185;28;45366;-74
2022/06/04 07:45:03;;;;;;;;;5.50;5.50;;;;;;;;5060081;28;45342;-74
2022/06/04 07:47:28;;;;;;;;;6.00;6.00;;;;;;;;5074246;27;47169;-73
2022/06/04 07:49:57;;;;;;;;;7.25;6.25;;;;;;;;5065273;27;45438;-74
2022/06/04 07:52:22;;;;;;;;;8.75;7.00;;;;;;;;5063362;28;45625;-73
2022/06/04 07:54:47;;;;;;;;;6.00;6.00;;;;;;;;5065820;27;45812;-73
2022/06/04 07:57:13;;;;;;;;;6.00;6.00;;;;;;;;5071373;28;45574;-73
2022/06/04 07:59:38;;;;;;;;;5.00;5.00;;;;;;;;5074193;28;45530;-73
2022/06/04 08:02:04;;;;;;;;;6.00;6.00;;;;;;;;5081465;27;45450;-73
2022/06/04 08:04:29;;;;;;;;;6.00;6.00;;;;;;;;5071614;27;45269;-74
2022/06/04 08:06:54;;;;;;;;;6.00;6.00;;;;;;;;5066526;27;45498;-74
2022/06/04 08:09:19;;;;;;;;;7.25;6.00;;;;;;;;5061330;28;45500;-74
2022/06/04 08:11:45;;;;;;;;;5.25;5.25;;;;;;;;5074660;28;45466;-75
2022/06/04 08:14:16;;;;;;;;;6.75;6.75;;;;;;;;5076983;27;45398;-74
2022/06/04 08:16:42;;;;;;;;;7.25;7.00;;;;;;;;5084405;27;46396;-75
2022/06/04 08:19:08;;;;;;;;;6.25;6.00;;;;;;;;5068424;27;45533;-74
2022/06/04 08:21:34;;;;;;;;;7.25;6.25;;;;;;;;5063426;27;45572;-74
2022/06/04 08:24:00;;;;;;;;;6.25;6.25;;;;;;;;5072108;28;48622;-74
2022/06/04 08:26:25;;;;;;;;;6.50;6.50;;;;;;;;5074157;27;46225;-74
2022/06/04 08:28:51;;;;;;;;;6.50;6.50;;;;;;;;5072916;28;45359;-74
2022/06/04 08:31:16;;;;;;;;;6.25;6.25;;;;;;;;5066323;27;45352;-74
2022/06/04 08:33:42;;;;;;;;;5.50;5.50;;;;;;;;5069436;27;45299;-73
2022/06/04 08:36:08;;;;;;;;;8.00;6.75;;;;;;;;5061544;28;46315;-73
2022/06/04 08:38:33;;;;;;;;;6.00;6.00;;;;;;;;5058477;28;45249;-73
2022/06/04 08:41:00;;;;;;;;;6.00;6.00;;;;;;;;5073336;28;45324;-73
2022/06/04 08:43:25;;;;;;;;;7.00;7.00;;;;;;;;5069248;28;45453;-74
2022/06/04 08:45:51;;;;;;;;;6.25;6.25;;;;;;;;5066823;28;45611;-74
2022/06/04 08:48:20;;;;;;;;;6.00;4.75;;;;;;;;5060249;28;45272;-73
2022/06/04 08:50:47;;;;;;;;;7.00;6.25;;;;;;;;5075008;27;45421;-74
2022/06/04 08:53:17;;;;;;;;;6.25;5.00;;;;;;;;5060283;27;45216;-73
2022/06/04 08:58:49;;;;;;;;;6.00;6.00;;;;;;;;5070119;28;45437;-74
2022/06/04 09:01:19;;;;;;;;;8.00;7.50;;;;;;;;5068777;27;45556;-74
2022/06/04 09:03:46;;;;;;;;;7.00;7.00;;;;;;;;5074158;27;45401;-74
2022/06/04 09:06:30;;;;;;;;;7.75;6.00;;;;;;;;5070700;27;47527;-74
2022/06/04 09:09:14;;;;;;;;;8.50;8.00;;;;;;;;5073058;27;45632;-74
2022/06/04 09:11:54;;;;;;;;;6.00;6.00;;;;;;;;5058219;28;45355;-73
2022/06/04 09:14:19;;;;;;;;;7.00;6.00;;;;;;;;5058845;28;45426;-74
2022/06/04 09:16:48;;;;;;;;;6.00;6.00;;;;;;;;5072388;28;45446;-75
2022/06/04 09:19:16;;;;;;;;;5.25;5.25;;;;;;;;5070965;27;45451;-74
2022/06/04 09:21:41;;;;;;;;;5.25;5.25;;;;;;;;5070330;28;45610;-74
2022/06/04 09:24:07;;;;;;;;;6.50;6.00;;;;;;;;5073348;28;45390;-74
2022/06/04 09:26:41;;;;;;;;;5.75;5.75;;;;;;;;5057761;28;45349;-73
2022/06/04 09:29:06;;;;;;;;;5.25;5.25;;;;;;;;5075494;27;45743;-74
2022/06/04 09:31:41;;;;;;;;;6.00;6.00;;;;;;;;5071181;27;45462;-74
2022/06/04 09:34:27;;;;;;;;;5.25;5.25;;;;;;;;5067682;27;45635;-73
2022/06/04 09:36:53;;;;;;;;;8.00;8.00;;;;;;;;5068506;27;46100;-74
2022/06/04 09:39:19;;;;;;;;;7.00;7.00;;;;;;;;5069711;28;45601;-74
2022/06/04 09:41:49;;;;;;;;;5.75;5.75;;;;;;;;5072839;28;45377;-73
2022/06/04 09:44:15;;;;;;;;;4.25;4.25;;;;;;;;5072580;27;45351;-74
2022/06/04 09:46:43;;;;;;;;;7.00;7.00;;;;;;;;5070961;28;47238;-74
2022/06/04 09:49:13;;;;;;;;;7.75;6.75;;;;;;;;5063238;28;45375;-74
2022/06/04 09:51:41;;;;;;;;;6.50;6.50;;;;;;;;5062241;28;45580;-74
2022/06/04 09:54:18;;;;;;;;;8.00;6.00;;;;;;;;5072970;27;45764;-74
2022/06/04 09:56:49;;;;;;;;;7.50;7.50;;;;;;;;5059061;28;46200;-74
2022/06/04 09:59:18;;;;;;;;;5.75;5.75;;;;;;;;5075323;27;45268;-74
2022/06/04 10:01:51;;;;;;;;;6.75;6.50;;;;;;;;5076008;27;45373;-74
2022/06/04 10:04:16;;;;;;;;;8.00;7.00;;;;;;;;5072190;27;46025;-74
2022/06/04 10:06:42;;;;;;;;;6.50;6.50;;;;;;;;5068966;27;47171;-74
2022/06/04 10:11:59;;;;;;;;;9.00;7.00;;;;;;;;5061385;28;45391;-74
2022/06/04 10:14:28;;;;;;;;;7.25;7.25;;;;;;;;5057868;28;45241;-74
2022/06/04 10:16:53;;;;;;;;;7.75;7.25;;;;;;;;5060433;28;46177;-73
2022/06/04 10:19:20;;;;;;;;;6.75;6.75;;;;;;;;5061584;27;45717;-74
2022/06/04 10:21:47;;;;;;;;;6.00;6.00;;;;;;;;5063060;28;45350;-74
2022/06/04 10:24:19;;;;;;;;;6.50;6.50;;;;;;;;5071566;27;45497;-74
2022/06/04 10:26:45;;;;;;;;;5.75;5.75;;;;;;;;5057341;28;46390;-74
2022/06/04 10:29:28;;;;;;;;;5.00;5.00;;;;;;;;5071796;28;45280;-74
2022/06/04 10:31:54;;;;;;;;;6.50;6.50;;;;;;;;5060148;27;45493;-74
2022/06/04 10:34:25;;;;;;;;;7.25;7.25;;;;;;;;5059221;28;45831;-74
2022/06/04 10:37:13;;;;;;;;;7.25;7.25;;;;;;;;5063098;28;46861;-74
2022/06/04 10:40:14;;;;;;;;;6.00;6.00;;;;;;;;5068361;27;45608;-74
2022/06/04 10:43:05;;;;;;;;;6.50;6.25;;;;;;;;5051272;28;45500;-74
2022/06/04 10:45:32;;;;;;;;;6.00;6.00;;;;;;;;5050080;28;45519;-74
2022/06/04 10:48:09;;;;;;;;;5.75;5.75;;;;;;;;5052304;28;47039;-74
2022/06/04 10:51:25;;;;;;;;;5.75;5.75;;;;;;;;5065904;28;45421;-74
2022/06/04 10:53:39;;;;;;;;;7.00;7.00;;;;;;;;5050085;28;45330;-74
2022/06/04 10:56:06;;;;;;;;;8.00;6.75;;;;;;;;5008715;28;45555;-75
2022/06/04 10:58:38;;;;;;;;;6.25;6.00;;;;;;;;5013299;28;45301;-74
2022/06/04 11:01:09;;;;;;;;;5.25;5.00;;;;;;;;5012687;28;46008;-74
2022/06/04 11:03:46;;;;;;;;;8.00;7.00;;;;;;;;5016041;28;45438;-74
2022/06/04 11:06:15;;;;;;;;;6.25;6.25;;;;;;;;5025488;28;45483;-74
2022/06/04 11:08:44;;;;;;;;;8.00;8.00;;;;;;;;5016082;28;46209;-74
2022/06/04 11:11:12;;;;;;;;;6.50;6.50;;;;;;;;5015898;28;45350;-74
2022/06/04 11:14:06;;;;;;;;;7.50;7.50;;;;;;;;5017135;28;45436;-74
2022/06/04 11:16:38;;;;;;;;;8.00;7.50;;;;;;;;5004185;28;45359;-74
2022/06/04 11:19:10;;;;;;;;;7.00;7.00;;;;;;;;5018510;28;47093;-74
2022/06/04 11:21:43;;;;;;;;;6.00;6.00;;;;;;;;5034421;28;45558;-74
2022/06/04 11:24:11;;;;;;;;;7.00;7.00;;;;;;;;5035208;28;45557;-74
2022/06/04 11:26:42;;;;;;;;;6.25;6.25;;;;;;;;5018495;28;45472;-74
2022/06/04 11:29:09;;;;;;;;;5.25;5.25;;;;;;;;5032061;28;46390;-74
2022/06/04 11:31:45;;;;;;;;;6.00;6.00;;;;;;;;5034890;28;45478;-74
2022/06/04 11:34:18;;;;;;;;;6.00;6.00;;;;;;;;5062629;28;45449;-74
2022/06/04 11:36:57;;;;;;;;;7.50;7.50;;;;;;;;5064808;27;45288;-74
2022/06/04 11:39:26;;;;;;;;;7.75;6.50;;;;;;;;5062135;28;45498;-74
2022/06/04 11:42:09;;;;;;;;;5.00;5.00;;;;;;;;5074200;27;45453;-74
2022/06/04 11:44:35;;;;;;;;;7.25;7.25;;;;;;;;5072800;27;45370;-75
2022/06/04 11:47:01;;;;;;;;;7.00;7.00;;;;;;;;5073967;28;45311;-73
2022/06/04 11:49:31;;;;;;;;;6.50;6.00;;;;;;;;5071441;28;46194;-74
2022/06/04 11:52:12;;;;;;;;;5.00;5.00;;;;;;;;5067624;28;45391;-73
2022/06/04 11:54:46;;;;;;;;;6.50;6.50;;;;;;;;5063901;28;45859;-74
2022/06/04 11:57:30;;;;;;;;;7.25;6.50;;;;;;;;5071339;28;45434;-74
2022/06/04 11:59:58;;;;;;;;;5.75;5.75;;;;;;;;5073369;27;45345;-74
2022/06/04 12:02:43;;;;;;;;;7.50;7.50;;;;;;;;5085281;27;45619;-73
2022/06/04 12:05:15;;;;;;;;;7.25;7.25;;;;;;;;5051263;28;45471;-73
2022/06/04 12:07:42;;;;;;;;;7.00;7.00;;;;;;;;5042779;28;45562;-74
2022/06/04 12:10:22;;;;;;;;;6.50;6.50;;;;;;;;5047296;28;45578;-75
2022/06/04 12:12:48;;;;;;;;;6.50;6.25;;;;;;;;5059134;28;45457;-73
2022/06/04 12:15:16;;;;;;;;;7.00;7.00;;;;;;;;5055182;28;45479;-74
2022/06/04 12:17:50;;;;;;;;;6.00;6.00;;;;;;;;5054743;28;45619;-74
2022/06/04 12:26:17;;;;;;;;;6.50;5.75;;;;;;;;5051317;28;45398;-74
2022/06/04 12:28:43;;;;;;;;;5.25;5.25;;;;;;;;5055361;28;45383;-75
2022/06/04 12:31:08;;;;;;;;;6.00;6.00;;;;;;;;5053998;28;45383;-73
2022/06/04 12:33:50;;;;;;;;;7.25;5.25;;;;;;;;5054742;28;45460;-73
2022/06/04 12:36:29;;;;;;;;;5.00;5.00;;;;;;;;5053906;28;45453;-74
2022/06/04 12:38:59;;;;;;;;;4.50;4.25;;;;;;;;5041317;28;45412;-73
2022/06/04 12:41:36;;;;;;;;;5.00;5.00;;;;;;;;5040092;28;46430;-74
2022/06/04 12:44:01;;;;;;;;;5.00;5.00;;;;;;;;5077429;28;45468;-74
2022/06/04 12:46:27;;;;;;;;;6.50;6.50;;;;;;;;5075385;28;45808;-74
2022/06/04 12:48:52;;;;;;;;;5.00;5.00;;;;;;;;5075221;28;45462;-74
2022/06/04 12:51:36;;;;;;;;;7.75;6.00;;;;;;;;5073258;28;46217;-75
2022/06/04 12:54:04;;;;;;;;;5.25;5.25;;;;;;;;5059228;28;45339;-75
2022/06/04 12:56:33;;;;;;;;;7.25;7.25;;;;;;;;5073745;28;45518;-74
2022/06/04 12:59:00;;;;;;;;;6.75;6.75;;;;;;;;5061702;28;45574;-74
2022/06/04 13:01:33;;;;;;;;;6.50;6.50;;;;;;;;5070158;27;47371;-74
2022/06/04 13:04:10;;;;;;;;;6.00;6.00;;;;;;;;5074703;27;45618;-74
2022/06/04 13:06:48;;;;;;;;;6.25;6.25;;;;;;;;5070309;27;45439;-74
2022/06/04 13:09:22;;;;;;;;;5.00;5.00;;;;;;;;5070011;28;45429;-74
2022/06/04 13:12:08;;;;;;;;;6.00;6.00;;;;;;;;5074245;27;47366;-74
2022/06/04 13:14:43;;;;;;;;;5.00;5.00;;;;;;;;5058349;27;45225;-73
2022/06/04 13:17:14;;;;;;;;;5.00;5.00;;;;;;;;5080563;27;45477;-74
2022/06/04 13:19:39;;;;;;;;;6.00;6.00;;;;;;;;5071500;27;45403;-74
2022/06/04 13:22:13;;;;;;;;;7.25;6.50;;;;;;;;5065858;27;46082;-74
2022/06/04 13:24:39;;;;;;;;;5.25;5.25;;;;;;;;5060830;28;45320;-74
2022/06/04 13:27:08;;;;;;;;;6.50;5.50;;;;;;;;5060604;28;45346;-74
2022/06/04 13:29:36;;;;;;;;;6.75;6.00;;;;;;;;5057299;28;45355;-74
2022/06/04 13:32:02;;;;;;;;;6.00;6.00;;;;;;;;5069542;27;45413;-74
2022/06/04 13:34:30;;;;;;;;;4.75;4.75;;;;;;;;5061071;28;45438;-74
2022/06/04 13:36:57;;;;;;;;;6.50;6.50;;;;;;;;5074221;27;45465;-74
2022/06/04 13:39:22;;;;;;;;;5.50;5.50;;;;;;;;5080924;27;45772;-74
2022/06/04 13:42:02;;;;;;;;;5.00;5.00;;;;;;;;5058276;28;45964;-74
2022/06/04 13:44:34;;;;;;;;;7.00;7.00;;;;;;;;5057043;28;45487;-74
2022/06/04 13:47:11;;;;;;;;;6.75;6.75;;;;;;;;5060497;28;45410;-74
2022/06/04 13:49:36;;;;;;;;;6.25;6.25;;;;;;;;5077522;27;45331;-73
2022/06/04 13:52:10;;;;;;;;;7.75;6.00;;;;;;;;5069530;28;45503;-74
2022/06/04 13:54:37;;;;;;;;;5.25;5.25;;;;;;;;5068906;28;45523;-74
2022/06/04 13:57:20;;;;;;;;;5.00;5.00;;;;;;;;5059433;28;45549;-74
2022/06/04 13:59:48;;;;;;;;;5.25;5.25;;;;;;;;5058382;28;45276;-74
2022/06/04 14:02:15;;;;;;;;;4.00;4.00;;;;;;;;5081464;27;47238;-74
2022/06/04 14:07:34;;;;;;;;;5.75;5.25;;;;;;;;5071180;27;45322;-74
2022/06/04 14:09:59;;;;;;;;;6.00;6.00;;;;;;;;5069543;28;45480;-74
2022/06/04 14:12:40;;;;;;;;;5.00;5.00;;;;;;;;5082686;27;46048;-74
2022/06/04 14:15:15;;;;;;;;;5.00;5.00;;;;;;;;5070371;27;45549;-74
2022/06/04 14:17:43;;;;;;;;;5.00;5.00;;;;;;;;5058971;27;45304;-74
2022/06/04 14:20:27;;;;;;;;;5.75;5.75;;;;;;;;5071969;28;45320;-73
2022/06/04 14:22:55;;;;;;;;;5.50;5.50;;;;;;;;5059352;28;45406;-74
2022/06/04 14:25:25;;;;;;;;;5.00;5.00;;;;;;;;5069118;27;45626;-74
2022/06/04 14:27:59;;;;;;;;;5.50;5.50;;;;;;;;5066598;27;45334;-74
2022/06/04 14:30:31;;;;;;;;;6.00;6.00;;;;;;;;5060191;28;45400;-74
2022/06/04 14:32:56;;;;;;;;;4.75;4.75;;;;;;;;5067983;27;46044;-74
2022/06/04 14:35:22;;;;;;;;;5.00;5.00;;;;;;;;5069579;27;46159;-74
2022/06/04 14:37:48;;;;;;;;;4.75;4.75;;;;;;;;5059655;28;45450;-74
2022/06/04 14:40:15;;;;;;;;;5.00;5.00;;;;;;;;5061222;27;45484;-74
2022/06/04 14:42:46;;;;;;;;;7.50;6.00;;;;;;;;5061441;28;47461;-74
2022/06/04 14:45:20;;;;;;;;;7.25;6.75;;;;;;;;5068619;28;45626;-73
2022/06/04 14:47:58;;;;;;;;;5.00;5.00;;;;;;;;5072393;28;45595;-74
2022/06/04 14:50:46;;;;;;;;;7.00;6.00;;;;;;;;5071551;28;45306;-73
2022/06/04 14:53:12;;;;;;;;;5.25;5.25;;;;;;;;5071576;28;46102;-73
2022/06/04 14:56:02;;;;;;;;;8.50;7.00;;;;;;;;5069520;28;45474;-73
2022/06/04 14:58:41;;;;;;;;;6.00;4.00;;;;;;;;5061382;27;45267;-74
2022/06/04 15:01:21;;;;;;;;;5.75;4.00;;;;;;;;5073485;27;45548;-74
2022/06/04 15:03:49;;;;;;;;;6.00;6.00;;;;;;;;5072724;27;45535;-74
2022/06/04 15:06:20;;;;;;;;;5.50;5.50;;;;;;;;5057905;27;45572;-74
2022/06/04 15:08:49;;;;;;;;;6.00;6.00;;;;;;;;5072175;28;45561;-74
2022/06/04 15:11:27;;;;;;;;;7.25;7.25;;;;;;;;5078930;27;45264;-74
2022/06/04 15:14:11;;;;;;;;;5.25;5.25;;;;;;;;5059357;28;46196;-74
2022/06/04 15:17:03;;;;;;;;;5.00;5.00;;;;;;;;5060474;28;45254;-74
2022/06/04 15:19:37;;;;;;;;;7.00;5.50;;;;;;;;5064105;27;45564;-74
2022/06/04 15:22:05;;;;;;;;;6.50;5.50;;;;;;;;5064707;27;47047;-74